createdAt,value
2023-02-16T00:04:17.602Z,27.17
2023-02-16T00:09:20.361Z,26.70
2023-02-16T00:14:23.594Z,26.37
2023-02-16T00:19:44.271Z,24.70
2023-02-16T00:24:45.856Z,25.63
2023-02-16T00:29:47.623Z,25.00
2023-02-16T00:34:49.223Z,19.83
2023-02-16T00:39:50.895Z,24.33
2023-02-16T00:44:55.719Z,25.77
2023-02-16T00:49:57.680Z,24.53
2023-02-16T00:55:00.681Z,22.70
2023-02-16T01:00:19.832Z,24.70
2023-02-16T01:05:21.669Z,25.10
2023-02-16T01:10:43.284Z,25.10
2023-02-16T01:15:45.437Z,23.77
2023-02-16T01:20:48.133Z,24.20
2023-02-16T01:25:49.816Z,24.63
2023-02-16T01:30:52.582Z,25.73
2023-02-16T01:35:56.621Z,26.73
2023-02-16T01:41:22.517Z,23.53
2023-02-16T01:46:44.462Z,27.90
2023-02-16T01:51:56.258Z,23.10
2023-02-16T01:57:05.183Z,27.17
2023-02-16T02:02:33.409Z,28.87
2023-02-16T02:07:42.068Z,25.87
2023-02-16T02:12:50.732Z,24.37
2023-02-16T02:17:52.648Z,28.43
2023-02-16T02:23:32.317Z,25.93
2023-02-16T02:28:47.725Z,27.90
2023-02-16T02:33:55.319Z,24.63
2023-02-16T02:39:28.333Z,26.87
2023-02-16T02:44:33.753Z,23.77
2023-02-16T02:49:35.530Z,27.97
2023-02-16T02:54:58.985Z,26.50
2023-02-16T03:00:27.950Z,27.00
2023-02-16T03:05:33.137Z,25.43
2023-02-16T03:10:56.520Z,26.57
2023-02-16T03:15:59.473Z,28.17
2023-02-16T03:21:22.037Z,25.00
2023-02-16T03:26:44.172Z,23.50
2023-02-16T03:31:46.989Z,19.17
2023-02-16T03:36:55.043Z,25.37
2023-02-16T03:41:57.699Z,23.33
2023-02-16T03:46:59.482Z,26.47
2023-02-16T03:52:01.109Z,25.33
2023-02-16T03:57:05.385Z,28.87
2023-02-16T04:02:07.049Z,28.27
2023-02-16T04:07:08.725Z,25.07
2023-02-16T04:12:31.474Z,22.93
2023-02-16T04:17:33.152Z,27.23
2023-02-16T04:22:34.882Z,21.97
2023-02-16T04:27:38.025Z,22.90
2023-02-16T04:32:40.005Z,23.37
2023-02-16T04:37:42.141Z,23.23
2023-02-16T04:42:45.149Z,19.93
2023-02-16T04:47:46.859Z,20.27
2023-02-16T04:52:48.587Z,20.73
2023-02-16T04:57:50.567Z,21.47
2023-02-16T05:05:31.709Z,21.93
2023-02-16T05:10:33.353Z,19.67
2023-02-16T05:15:34.981Z,22.10
2023-02-16T05:20:55.606Z,20.37
2023-02-16T05:26:11.028Z,21.30
2023-02-16T05:31:12.740Z,20.40
2023-02-16T05:36:14.534Z,19.80
2023-02-16T05:41:23.570Z,22.03
2023-02-16T05:46:26.740Z,20.43
2023-02-16T05:51:28.621Z,21.00
2023-02-16T05:56:30.582Z,18.87
2023-02-16T06:01:32.255Z,23.10
2023-02-16T06:06:33.884Z,20.30
2023-02-16T06:11:36.468Z,21.83
2023-02-16T06:16:40.602Z,24.40
2023-02-16T06:21:43.072Z,19.97
2023-02-16T06:26:44.735Z,22.17
2023-02-16T06:31:46.483Z,21.03
2023-02-16T06:36:48.206Z,21.87
2023-02-16T06:41:50.216Z,22.20
2023-02-16T06:46:51.933Z,21.10
2023-02-16T06:51:53.583Z,20.60
2023-02-16T06:56:55.166Z,23.03
2023-02-16T07:01:56.914Z,23.73
2023-02-16T07:06:58.585Z,22.53
2023-02-16T07:12:00.225Z,21.53
2023-02-16T07:17:04.411Z,22.03
2023-02-16T07:22:06.228Z,23.13
2023-02-16T07:27:08.721Z,21.80
2023-02-16T07:32:10.452Z,20.73
2023-02-16T07:37:12.334Z,21.83
2023-02-16T07:42:13.920Z,20.33
2023-02-16T07:47:15.785Z,21.47
2023-02-16T07:52:17.522Z,20.43
2023-02-16T07:57:19.172Z,21.93
2023-02-16T08:02:22.223Z,21.23
2023-02-16T08:07:23.921Z,21.17
2023-02-16T08:12:26.001Z,20.63
2023-02-16T08:17:27.621Z,21.60
2023-02-16T08:22:29.361Z,22.13
2023-02-16T08:27:30.993Z,26.87
2023-02-16T08:32:33.420Z,38.63
2023-02-16T08:37:35.280Z,25.70
2023-02-16T08:42:37.952Z,23.47
2023-02-16T08:47:39.612Z,24.13
2023-02-16T08:52:41.240Z,25.10
2023-02-16T08:57:42.929Z,25.13
2023-02-16T09:02:44.821Z,22.30
2023-02-16T09:07:46.474Z,25.37
2023-02-16T09:12:49.876Z,24.80
2023-02-16T09:17:51.589Z,22.47
2023-02-16T09:22:53.910Z,22.10
2023-02-16T09:27:55.637Z,20.73
2023-02-16T09:32:59.404Z,20.93
2023-02-16T09:38:02.479Z,21.23
2023-02-16T09:43:13.576Z,21.37
2023-02-16T09:48:32.721Z,21.17
2023-02-16T09:53:41.716Z,20.83
2023-02-16T09:59:31.121Z,21.33
2023-02-16T10:05:03.409Z,17.40
2023-02-16T10:10:07.717Z,16.43
2023-02-16T10:15:20.793Z,17.10
2023-02-16T10:20:34.518Z,16.40
2023-02-16T10:25:42.214Z,14.50
2023-02-16T10:31:01.002Z,14.10
2023-02-16T10:36:24.365Z,12.40
2023-02-16T10:41:35.458Z,11.97
2023-02-16T10:46:52.417Z,13.73
2023-02-16T10:51:56.935Z,12.27
2023-02-16T10:57:05.539Z,12.93
2023-02-16T11:06:30.868Z,11.80
2023-02-16T11:11:38.832Z,11.23
2023-02-16T11:16:40.649Z,12.67
2023-02-16T11:21:58.835Z,11.53
2023-02-16T11:27:27.179Z,12.23
2023-02-16T11:32:33.911Z,11.93
2023-02-16T11:37:35.589Z,12.13
2023-02-16T11:42:47.153Z,11.67
2023-02-16T11:47:54.437Z,11.20
2023-02-16T11:53:13.186Z,11.07
2023-02-16T11:58:19.327Z,10.53
2023-02-16T12:03:36.029Z,10.60
2023-02-16T12:09:18.838Z,9.53
2023-02-16T12:14:38.984Z,10.27
2023-02-16T12:19:56.425Z,8.40
2023-02-16T12:25:10.084Z,8.53
2023-02-16T12:52:48.624Z,11.80
2023-02-16T12:57:57.145Z,11.67
2023-02-16T13:03:17.186Z,8.23
2023-02-16T13:08:40.087Z,8.07
2023-02-16T13:13:44.918Z,8.80
2023-02-16T13:18:50.842Z,8.27
2023-02-16T13:24:10.818Z,8.33
2023-02-16T13:29:34.486Z,9.70
2023-02-16T13:35:04.073Z,9.67
2023-02-16T13:40:10.250Z,9.10
2023-02-16T13:45:24.886Z,6.77
2023-02-16T13:50:33.019Z,6.30
2023-02-16T13:55:37.620Z,6.27
2023-02-16T14:00:47.966Z,6.93
2023-02-16T14:05:55.832Z,5.53
2023-02-16T14:11:04.301Z,6.13
2023-02-16T14:16:12.497Z,6.20
2023-02-16T14:21:36.564Z,6.90
2023-02-16T14:27:06.174Z,6.43
2023-02-16T14:32:38.497Z,6.50
2023-02-16T14:38:16.342Z,6.70
2023-02-16T14:43:23.170Z,7.17
2023-02-16T14:48:53.075Z,6.83
2023-02-16T14:53:54.731Z,7.30
2023-02-16T14:59:11.929Z,7.63
2023-02-16T15:04:28.333Z,6.87
2023-02-16T15:09:32.976Z,7.80
2023-02-16T15:14:43.447Z,8.03
2023-02-16T15:19:45.185Z,7.67
2023-02-16T15:25:00.053Z,8.77
2023-02-16T15:30:21.153Z,8.63
2023-02-16T15:35:33.537Z,13.80
2023-02-16T15:40:36.480Z,11.70
2023-02-16T15:45:38.379Z,11.63
2023-02-16T15:50:41.030Z,10.50
2023-02-16T15:55:47.316Z,9.70
2023-02-16T16:00:49.013Z,10.57
2023-02-16T16:05:58.823Z,9.93
2023-02-16T16:11:01.050Z,8.50
2023-02-16T16:16:04.686Z,9.10
2023-02-16T16:21:26.849Z,8.50
2023-02-16T16:26:31.782Z,7.73
2023-02-16T16:31:39.986Z,8.47
2023-02-16T16:36:53.952Z,10.47
2023-02-16T16:41:55.431Z,11.37
2023-02-16T16:46:57.119Z,12.30
2023-02-16T16:51:58.766Z,13.07
2023-02-16T16:57:00.477Z,12.93
2023-02-16T17:02:02.102Z,13.87
2023-02-16T17:07:03.668Z,13.60
2023-02-16T17:12:05.769Z,14.03
2023-02-16T17:17:09.004Z,13.90
2023-02-16T17:22:15.526Z,12.67
2023-02-16T17:27:17.113Z,13.17
2023-02-16T17:32:19.223Z,12.20
2023-02-16T17:37:20.990Z,11.80
2023-02-16T17:42:22.608Z,11.37
2023-02-16T17:47:24.208Z,10.73
2023-02-16T17:52:25.783Z,10.07
2023-02-16T17:57:29.297Z,9.37
2023-02-16T18:02:31.154Z,10.07
2023-02-16T18:07:32.747Z,9.93
2023-02-16T18:12:34.338Z,11.50
2023-02-16T18:17:35.995Z,8.20
2023-02-16T18:22:37.561Z,9.67
2023-02-16T18:27:39.234Z,8.50
2023-02-16T18:32:41.928Z,8.70
2023-02-16T18:37:44.614Z,10.00
2023-02-16T18:42:47.593Z,8.43
2023-02-16T18:47:49.244Z,8.70
2023-02-16T18:52:50.817Z,7.83
2023-02-16T18:57:52.341Z,7.97
2023-02-16T19:02:55.373Z,7.60
2023-02-16T19:07:57.216Z,7.47
2023-02-16T19:13:01.104Z,7.37
2023-02-16T19:18:02.896Z,7.23
2023-02-16T19:23:04.606Z,7.33
2023-02-16T19:28:06.219Z,7.33
2023-02-16T19:33:07.880Z,8.03
2023-02-16T19:38:09.469Z,8.73
2023-02-16T19:43:11.048Z,8.40
2023-02-16T19:48:12.705Z,8.93
2023-02-16T19:53:14.303Z,8.77
2023-02-16T19:58:15.905Z,9.13
2023-02-16T20:03:18.340Z,8.37
2023-02-16T20:08:19.926Z,8.17
2023-02-16T20:13:21.588Z,8.40
2023-02-16T20:18:23.254Z,7.93
2023-02-16T20:23:24.917Z,9.07
2023-02-16T20:28:27.090Z,8.33
2023-02-16T20:33:28.734Z,7.47
2023-02-16T20:38:30.290Z,6.80
2023-02-16T20:43:32.617Z,7.07
2023-02-16T20:48:35.042Z,5.90
2023-02-16T20:53:36.699Z,6.10
2023-02-16T20:58:38.623Z,5.90
2023-02-16T21:03:40.828Z,5.50
2023-02-16T21:08:42.717Z,5.77
2023-02-16T21:13:45.011Z,6.40
2023-02-16T21:18:46.947Z,5.73
2023-02-16T21:23:51.674Z,6.17
2023-02-16T21:28:54.361Z,6.30
2023-02-16T21:33:56.078Z,7.40
2023-02-16T21:38:57.721Z,5.97
2023-02-16T21:44:00.700Z,6.40
2023-02-16T21:49:02.690Z,8.40
2023-02-16T21:54:09.218Z,7.30
2023-02-16T21:59:16.353Z,7.67
2023-02-16T22:04:20.039Z,6.23
2023-02-16T22:09:23.269Z,7.90
2023-02-16T22:14:24.864Z,5.60
2023-02-16T22:19:26.651Z,5.77
2023-02-16T22:24:28.224Z,7.33
2023-02-16T22:29:29.772Z,8.93
2023-02-16T22:34:31.384Z,6.67
2023-02-16T22:39:33.027Z,6.63
2023-02-16T22:44:34.700Z,7.63
2023-02-16T22:49:36.314Z,8.00
2023-02-16T22:54:38.489Z,7.33
2023-02-16T22:59:40.145Z,6.97
2023-02-16T23:04:43.276Z,6.60
2023-02-16T23:09:44.972Z,6.63
2023-02-16T23:14:46.657Z,6.93
2023-02-16T23:19:49.759Z,6.47
2023-02-16T23:25:11.313Z,6.20
2023-02-16T23:30:13.262Z,5.30
2023-02-16T23:35:14.959Z,5.80
2023-02-16T23:40:16.675Z,5.87
2023-02-16T23:45:18.405Z,5.87
2023-02-16T23:50:20.342Z,6.53
2023-02-16T23:55:22.086Z,6.10
